Terminal Aerodrome Forecast
Issued by NWS

Current Version | Previous Version | Text Only | Print | Product List | Glossary On
Versions: 1 2 3 4 5 6 7 8 9 10 11 12 13
000
FTUS45 KTFX 241742
TAFBZN
TAF
KBZN 241742Z 2418/2518 VRB05KT P6SM SCT040 BKN060
     FM242000 VRB06KT P6SM VCSH OVC050
      TEMPO 2420/2424 VRB15G25KT -TSRA OVC040CB
     FM250300 VRB05KT P6SM BKN100
     FM250700 VRB04KT P6SM SCT100=

USA.gov is the U.S. government's official web portal to all federal, state and local government web resources and services.